Time;durP1;ratioP1;P1;durP2;ratioP2;P2;SDS_P1;SDS_P2;PMS_P1;PMS_P2;Temp;Humidity;BMP_temperature;BMP_pressure;BME280_temperature;BME280_humidity;BME280_pressure;Samples;Min_cycle;Max_cycle;Signal;HPM_P1;HPM_P2
2022/06/06 00:01:57;;;;;;;4.40;3.23;;;14.80;48.70;;;;;;5012569;28;20480;-70
2022/06/06 00:04:23;;;;;;;2.40;2.00;;;14.70;48.80;;;;;;5011955;28;20928;-70
2022/06/06 00:06:50;;;;;;;2.80;2.00;;;14.70;48.30;;;;;;5013239;28;20730;-69
2022/06/06 00:09:16;;;;;;;2.97;2.67;;;14.70;48.40;;;;;;5013184;28;20980;-72
2022/06/06 00:11:43;;;;;;;4.33;3.17;;;14.70;48.30;;;;;;5012489;28;20500;-70
2022/06/06 00:14:10;;;;;;;3.80;2.70;;;14.70;48.30;;;;;;5012737;28;20421;-72
2022/06/06 00:16:35;;;;;;;2.83;2.53;;;14.60;49.10;;;;;;5013443;28;20432;-71
2022/06/06 00:19:02;;;;;;;3.00;2.70;;;14.60;48.60;;;;;;5013049;28;20458;-70
2022/06/06 00:21:28;;;;;;;3.37;2.90;;;14.60;48.30;;;;;;5012863;28;20201;-71
2022/06/06 00:23:58;;;;;;;5.63;3.00;;;14.60;48.30;;;;;;5013163;28;20750;-70
2022/06/06 00:26:25;;;;;;;4.50;3.07;;;14.50;48.30;;;;;;5012957;28;20199;-69
2022/06/06 00:28:51;;;;;;;3.53;2.70;;;14.50;47.90;;;;;;5012819;28;20413;-70
2022/06/06 00:36:45;;;;;;;5.60;2.50;;;14.30;49.50;;;;;;5013694;28;20470;-71
2022/06/06 00:39:14;;;;;;;3.67;2.40;;;14.30;49.80;;;;;;5013016;28;20461;-70
2022/06/06 00:41:42;;;;;;;4.43;2.73;;;14.20;50.10;;;;;;5012853;28;20601;-70
2022/06/06 00:44:10;;;;;;;4.47;3.60;;;14.20;50.00;;;;;;5013147;28;20427;-72
2022/06/06 00:46:45;;;;;;;3.97;3.07;;;14.20;50.10;;;;;;5013235;28;20445;-69
2022/06/06 00:49:24;;;;;;;4.13;3.40;;;14.10;50.70;;;;;;5013288;28;20412;-69
2022/06/06 00:51:51;;;;;;;3.60;2.93;;;14.20;50.10;;;;;;5012797;28;20448;-69
2022/06/06 00:54:17;;;;;;;3.37;2.80;;;14.20;50.30;;;;;;5012995;28;20426;-69
2022/06/06 00:56:52;;;;;;;4.23;2.67;;;14.30;49.10;;;;;;5013178;28;20415;-69
2022/06/06 00:59:23;;;;;;;4.70;2.80;;;14.30;49.10;;;;;;5013054;28;20960;-70
2022/06/06 01:01:51;;;;;;;4.63;3.73;;;14.30;48.70;;;;;;5012730;28;20519;-70
2022/06/06 01:04:20;;;;;;;2.93;2.30;;;14.40;48.20;;;;;;5012780;28;20419;-70
2022/06/06 01:06:47;;;;;;;3.03;2.40;;;14.30;48.40;;;;;;5012034;28;20889;-70
2022/06/06 01:09:15;;;;;;;3.30;2.60;;;14.30;48.90;;;;;;5012529;28;20525;-70
2022/06/06 01:11:47;;;;;;;4.30;3.47;;;14.30;49.60;;;;;;5011982;28;20440;-70
2022/06/06 01:14:17;;;;;;;2.90;2.33;;;14.20;49.80;;;;;;5012769;28;20418;-69
2022/06/06 01:17:07;;;;;;;4.67;3.50;;;14.20;49.30;;;;;;5012614;28;20413;-69
2022/06/06 01:19:48;;;;;;;3.90;2.50;;;14.10;49.00;;;;;;5012568;28;20506;-70
2022/06/06 01:22:38;;;;;;;4.20;3.20;;;14.10;48.70;;;;;;5012328;28;20774;-70
2022/06/06 01:25:10;;;;;;;2.90;2.13;;;14.10;48.80;;;;;;5012113;28;20403;-70
2022/06/06 01:27:49;;;;;;;3.90;2.50;;;14.00;49.20;;;;;;5012233;28;20544;-69
2022/06/06 01:30:25;;;;;;;6.80;3.10;;;14.00;49.70;;;;;;5012220;28;20433;-71
2022/06/06 01:32:55;;;;;;;4.07;3.10;;;13.90;49.90;;;;;;5011727;28;20773;-70
2022/06/06 01:35:26;;;;;;;6.80;2.87;;;13.90;49.90;;;;;;5011937;28;20429;-70
2022/06/06 01:37:52;;;;;;;6.70;4.00;;;13.90;49.90;;;;;;5011703;28;20454;-70
2022/06/06 01:40:18;;;;;;;4.77;3.43;;;13.90;50.40;;;;;;5011657;28;20493;-70
2022/06/06 01:43:08;;;;;;;3.90;3.50;;;14.00;50.70;;;;;;5010487;28;20179;-70
2022/06/06 01:45:54;;;;;;;5.67;3.77;;;14.00;50.00;;;;;;5010649;28;20475;-70
2022/06/06 01:48:23;;;;;;;5.00;3.37;;;13.90;49.90;;;;;;5012276;28;20437;-70
2022/06/06 01:50:49;;;;;;;4.40;3.13;;;13.90;49.90;;;;;;5011889;28;21019;-70
2022/06/06 01:53:19;;;;;;;3.87;2.43;;;13.80;50.10;;;;;;5011591;28;20952;-70
2022/06/06 01:55:47;;;;;;;4.27;3.13;;;13.70;50.40;;;;;;5011726;28;20517;-70
2022/06/06 01:58:21;;;;;;;4.93;3.17;;;13.70;50.10;;;;;;5011493;28;20455;-70
2022/06/06 02:00:47;;;;;;;4.80;3.60;;;13.80;50.30;;;;;;5012086;28;20520;-70
2022/06/06 02:03:12;;;;;;;5.83;4.70;;;13.80;49.80;;;;;;5011272;28;20440;-70
2022/06/06 02:05:38;;;;;;;5.07;3.47;;;13.70;49.70;;;;;;5011457;28;20510;-69
2022/06/06 02:08:05;;;;;;;4.77;3.57;;;13.70;49.70;;;;;;5011940;28;20442;-68
2022/06/06 02:10:30;;;;;;;4.70;4.10;;;13.70;49.70;;;;;;5011368;28;20431;-69
2022/06/06 02:12:56;;;;;;;3.50;2.83;;;13.70;49.70;;;;;;5011189;28;20427;-68
2022/06/06 02:15:23;;;;;;;5.77;2.73;;;13.60;50.30;;;;;;5011474;28;20673;-68
2022/06/06 02:17:50;;;;;;;2.77;2.40;;;13.60;50.00;;;;;;5013208;28;20179;-69
2022/06/06 02:20:18;;;;;;;4.20;3.30;;;13.60;50.40;;;;;;5015240;28;20969;-68
2022/06/06 02:22:44;;;;;;;3.17;2.53;;;13.60;51.10;;;;;;5014885;28;20405;-68
2022/06/06 02:25:11;;;;;;;3.90;3.10;;;13.60;49.60;;;;;;5014936;28;20522;-69
2022/06/06 02:27:37;;;;;;;3.70;2.70;;;13.60;49.60;;;;;;5014758;28;20251;-69
2022/06/06 02:30:06;;;;;;;5.57;3.70;;;13.60;49.60;;;;;;5014923;28;20816;-69
2022/06/06 02:32:32;;;;;;;3.87;2.93;;;13.60;50.10;;;;;;5014647;28;20854;-69
2022/06/06 02:34:58;;;;;;;4.90;4.07;;;13.70;49.40;;;;;;5015148;28;20422;-70
2022/06/06 02:37:23;;;;;;;8.43;4.63;;;13.70;49.70;;;;;;5014797;28;20800;-69
2022/06/06 02:39:49;;;;;;;4.10;3.00;;;13.60;49.60;;;;;;5015315;28;20478;-70
2022/06/06 02:42:15;;;;;;;4.70;4.10;;;13.70;49.70;;;;;;5014358;28;20236;-69
2022/06/06 02:44:40;;;;;;;4.20;2.97;;;13.60;49.50;;;;;;5015000;28;20549;-69
2022/06/06 02:47:06;;;;;;;3.30;3.00;;;13.70;49.70;;;;;;5014985;28;20644;-69
2022/06/06 02:49:33;;;;;;;6.30;3.70;;;13.70;49.70;;;;;;5014862;28;20192;-70
2022/06/06 02:52:03;;;;;;;5.00;3.50;;;13.70;49.10;;;;;;5014108;28;20315;-69
2022/06/06 02:54:29;;;;;;;4.87;3.70;;;13.70;49.70;;;;;;5014213;28;20458;-70
2022/06/06 02:56:56;;;;;;;3.60;3.30;;;13.60;49.60;;;;;;5014505;28;20508;-70
2022/06/06 02:59:23;;;;;;;3.67;3.20;;;13.60;49.70;;;;;;5014672;28;20466;-70
2022/06/06 03:01:49;;;;;;;6.10;3.63;;;13.50;50.70;;;;;;5014464;28;20459;-70
2022/06/06 03:04:15;;;;;;;3.53;3.00;;;13.40;50.00;;;;;;5014767;28;20556;-72
2022/06/06 03:06:55;;;;;;;4.03;3.00;;;13.40;49.90;;;;;;5014626;28;20424;-68
2022/06/06 03:09:21;;;;;;;4.40;3.80;;;13.30;51.10;;;;;;5013958;28;20176;-68
2022/06/06 03:12:06;;;;;;;4.10;3.70;;;13.20;54.20;;;;;;5013711;28;20801;-68
2022/06/06 03:15:05;;;;;;;5.13;4.30;;;13.10;54.90;;;;;;5013872;28;20180;-68
2022/06/06 03:20:49;;;;;;;5.50;3.50;;;13.00;54.00;;;;;;5013790;28;20489;-68
2022/06/06 03:23:51;;;;;;;4.63;3.20;;;13.10;54.10;;;;;;5013525;28;20421;-68
2022/06/06 03:26:42;;;;;;;5.00;4.50;;;13.00;55.10;;;;;;5014013;28;20461;-68
2022/06/06 03:29:31;;;;;;;5.90;3.80;;;13.00;54.30;;;;;;5012980;28;20420;-68
2022/06/06 03:32:21;;;;;;;4.63;3.43;;;13.10;54.10;;;;;;5013454;28;20415;-68
2022/06/06 03:34:54;;;;;;;3.43;3.13;;;13.10;54.10;;;;;;5013636;28;20416;-68
2022/06/06 03:37:43;;;;;;;4.20;3.50;;;13.10;54.70;;;;;;5013520;28;20424;-68
2022/06/06 03:40:36;;;;;;;3.50;3.20;;;13.10;54.50;;;;;;5013389;28;20560;-68
2022/06/06 03:43:23;;;;;;;6.30;4.10;;;13.20;54.30;;;;;;5013559;28;20434;-68
2022/06/06 03:46:01;;;;;;;7.03;5.23;;;13.30;54.30;;;;;;5013561;28;20498;-68
2022/06/06 03:49:01;;;;;;;5.70;4.40;;;13.50;53.20;;;;;;5013549;28;20450;-68
2022/06/06 03:52:03;;;;;;;4.10;3.70;;;13.50;52.90;;;;;;5013167;28;20472;-68
2022/06/06 03:54:54;;;;;;;7.10;4.43;;;13.50;54.30;;;;;;5013324;28;20910;-68
2022/06/06 03:57:24;;;;;;;4.47;3.97;;;13.50;54.50;;;;;;5013346;28;20451;-68
2022/06/06 04:00:06;;;;;;;4.30;3.40;;;13.70;53.50;;;;;;5013284;28;20471;-68
2022/06/06 04:02:35;;;;;;;5.20;3.80;;;13.80;52.00;;;;;;5012932;28;20426;-69
2022/06/06 04:05:07;;;;;;;5.03;3.13;;;13.70;52.30;;;;;;5013147;28;20420;-68
2022/06/06 04:07:33;;;;;;;5.87;4.70;;;13.70;53.40;;;;;;5012997;28;20429;-68
2022/06/06 04:09:59;;;;;;;3.83;3.20;;;13.90;52.00;;;;;;5012843;28;20924;-68
2022/06/06 04:12:58;;;;;;;4.70;3.87;;;14.00;52.30;;;;;;5012741;28;20194;-68
2022/06/06 04:15:54;;;;;;;4.97;3.80;;;14.20;52.60;;;;;;5012965;28;20422;-68
2022/06/06 04:18:56;;;;;;;5.33;4.07;;;14.10;51.70;;;;;;5013167;28;20990;-68
2022/06/06 04:21:28;;;;;;;5.00;2.90;;;14.30;53.40;;;;;;5012563;28;20431;-68
2022/06/06 04:24:18;;;;;;;8.30;4.57;;;14.20;51.30;;;;;;5012725;28;20410;-69
2022/06/06 04:27:14;;;;;;;4.10;3.70;;;14.20;55.10;;;;;;5012724;28;20409;-68
2022/06/06 04:30:04;;;;;;;4.13;3.40;;;14.50;53.60;;;;;;5012622;28;20418;-68
2022/06/06 04:32:57;;;;;;;3.97;3.20;;;14.70;53.70;;;;;;5012239;28;20805;-68
2022/06/06 04:35:39;;;;;;;4.30;3.50;;;14.90;53.30;;;;;;5012619;28;20823;-68
2022/06/06 04:38:17;;;;;;;7.63;4.20;;;15.10;53.10;;;;;;5012416;28;20431;-68
2022/06/06 04:41:02;;;;;;;11.60;4.20;;;15.20;51.00;;;;;;5012323;28;20447;-69
2022/06/06 04:44:09;;;;;;;4.73;4.27;;;15.30;51.10;;;;;;5012180;28;20414;-68
2022/06/06 04:47:12;;;;;;;4.57;3.00;;;15.60;51.40;;;;;;5011691;28;20427;-68
2022/06/06 04:49:38;;;;;;;4.80;3.20;;;16.10;47.80;;;;;;5011012;28;20497;-69
2022/06/06 04:52:04;;;;;;;2.90;2.53;;;16.70;41.20;;;;;;5012066;28;20506;-68
2022/06/06 04:54:31;;;;;;;3.60;2.87;;;17.50;42.90;;;;;;5012338;28;20410;-69
2022/06/06 04:57:03;;;;;;;4.70;2.40;;;18.30;44.30;;;;;;5010965;28;20434;-68
2022/06/06 04:59:30;;;;;;;6.93;3.40;;;18.90;38.90;;;;;;5011906;28;20455;-68
2022/06/06 05:01:58;;;;;;;4.20;2.40;;;19.00;34.10;;;;;;5012375;28;20431;-68
2022/06/06 05:04:24;;;;;;;3.13;2.23;;;18.80;33.50;;;;;;5012196;28;20415;-68
2022/06/06 05:07:19;;;;;;;4.90;2.70;;;18.70;32.80;;;;;;5012239;28;20770;-68
2022/06/06 05:10:16;;;;;;;3.67;2.40;;;18.60;33.30;;;;;;5012115;28;20184;-68
2022/06/06 05:13:12;;;;;;;4.60;3.40;;;18.60;33.30;;;;;;5011958;28;20422;-68
2022/06/06 05:16:02;;;;;;;3.30;2.43;;;19.10;33.80;;;;;;5011300;28;21089;-68
2022/06/06 05:18:58;;;;;;;3.50;3.07;;;20.40;31.40;;;;;;5012107;28;20457;-69
2022/06/06 05:21:36;;;;;;;3.80;3.50;;;21.50;27.40;;;;;;5011806;28;20454;-69
2022/06/06 05:24:28;;;;;;;4.97;3.63;;;22.30;25.80;;;;;;5012088;28;20498;-68
2022/06/06 05:27:12;;;;;;;5.50;4.27;;;23.10;22.70;;;;;;5012055;28;20414;-68
2022/06/06 05:29:47;;;;;;;5.40;4.90;;;23.80;23.20;;;;;;5012049;28;20463;-68
2022/06/06 05:32:23;;;;;;;9.20;8.53;;;24.40;21.00;;;;;;5011818;28;20485;-68
2022/06/06 05:34:59;;;;;;;8.03;7.63;;;24.80;19.80;;;;;;5011994;28;20465;-68
2022/06/06 05:37:55;;;;;;;8.30;7.90;;;25.60;19.40;;;;;;5012032;28;20425;-68
2022/06/06 05:40:33;;;;;;;12.07;11.57;;;26.30;18.60;;;;;;5011751;28;20546;-68
2022/06/06 05:43:25;;;;;;;12.73;12.13;;;27.30;15.90;;;;;;5011632;28;20453;-69
2022/06/06 05:46:04;;;;;;;14.37;13.77;;;28.20;14.40;;;;;;5011862;28;20414;-71
2022/06/06 05:48:58;;;;;;;15.43;14.63;;;28.90;13.40;;;;;;5012074;28;20406;-70
2022/06/06 05:52:01;;;;;;;14.87;14.27;;;29.50;12.30;;;;;;5011517;28;21004;-70
2022/06/06 05:54:47;;;;;;;15.27;14.67;;;29.60;12.00;;;;;;5015456;28;20414;-70
2022/06/06 05:57:34;;;;;;;15.60;15.00;;;29.90;10.40;;;;;;5015624;28;20406;-70
2022/06/06 06:00:29;;;;;;;16.20;15.40;;;29.80;10.40;;;;;;5015090;28;20839;-72
2022/06/06 06:03:31;;;;;;;15.70;15.10;;;29.90;10.40;;;;;;5014865;28;20561;-72
2022/06/06 06:06:21;;;;;;;15.67;14.97;;;29.90;9.00;;;;;;5014085;28;20433;-70
2022/06/06 06:09:03;;;;;;;16.00;14.90;;;29.40;9.70;;;;;;5015443;28;20411;-70
2022/06/06 06:12:08;;;;;;;15.47;14.87;;;29.60;11.10;;;;;;5015250;28;20445;-69
2022/06/06 06:14:57;;;;;;;16.23;15.63;;;30.40;9.70;;;;;;5015120;28;20471;-69
2022/06/06 06:17:28;;;;;;;16.70;16.00;;;30.90;8.50;;;;;;5013933;28;20939;-69
2022/06/06 06:20:12;;;;;;;17.10;16.23;;;31.20;8.70;;;;;;5015033;28;20984;-70
2022/06/06 06:22:46;;;;;;;17.37;16.67;;;31.70;7.90;;;;;;5014694;28;20422;-70
2022/06/06 06:25:14;;;;;;;16.73;16.03;;;32.00;8.30;;;;;;5014971;28;20461;-70
2022/06/06 06:27:41;;;;;;;17.30;16.40;;;32.40;6.90;;;;;;5014792;28;20425;-69
2022/06/06 06:30:08;;;;;;;16.87;16.17;;;32.20;6.20;;;;;;5014809;28;20438;-69
2022/06/06 06:33:02;;;;;;;15.70;15.10;;;32.30;5.50;;;;;;5014653;28;20857;-68
2022/06/06 06:35:41;;;;;;;18.30;17.40;;;32.60;6.10;;;;;;5014694;28;20924;-68
2022/06/06 06:38:36;;;;;;;17.10;16.43;;;32.90;5.80;;;;;;5014836;28;20414;-68
2022/06/06 06:41:13;;;;;;;17.17;16.47;;;32.80;5.00;;;;;;5014626;28;20504;-69
2022/06/06 06:44:10;;;;;;;16.90;16.03;;;32.10;5.40;;;;;;5014497;28;20406;-69
2022/06/06 06:46:49;;;;;;;17.13;16.43;;;32.60;5.60;;;;;;5014536;28;20425;-70
2022/06/06 06:49:36;;;;;;;17.10;16.30;;;32.70;4.50;;;;;;5014876;28;20564;-70
2022/06/06 06:52:01;;;;;;;17.00;16.30;;;31.60;5.10;;;;;;5014166;28;20774;-69
2022/06/06 06:54:41;;;;;;;16.33;15.57;;;31.40;5.80;;;;;;5014440;28;20411;-69
2022/06/06 06:57:37;;;;;;;16.83;16.13;;;31.00;5.40;;;;;;5014727;28;20709;-70
2022/06/06 07:00:11;;;;;;;17.40;16.60;;;30.90;5.40;;;;;;5014068;28;21058;-69
2022/06/06 07:08:54;;;;;;;17.00;15.93;;;31.00;5.40;;;;;;5014317;28;20402;-69
2022/06/06 07:12:02;;;;;;;16.07;15.30;;;31.70;5.20;;;;;;5014059;28;20431;-71
2022/06/06 07:15:01;;;;;;;16.70;16.00;;;31.40;3.90;;;;;;5014215;28;20494;-70
2022/06/06 07:17:30;;;;;;;17.00;16.20;;;31.50;5.10;;;;;;5014281;28;20415;-70
2022/06/06 07:20:08;;;;;;;17.37;16.57;;;31.80;4.50;;;;;;5013830;28;20999;-71
2022/06/06 07:25:31;;;;;;;17.33;16.63;;;33.50;1.60;;;;;;5014237;28;20461;-71
2022/06/06 07:27:57;;;;;;;17.60;16.90;;;34.40;1.20;;;;;;5013918;28;20415;-71
2022/06/06 07:30:23;;;;;;;16.73;15.93;;;34.50;1.00;;;;;;5013729;28;20434;-71
2022/06/06 07:33:22;;;;;;;17.77;17.07;;;34.60;1.00;;;;;;5013596;28;20183;-72
2022/06/06 07:35:51;;;;;;;19.17;18.27;;;34.40;1.00;;;;;;5013578;28;20415;-72
2022/06/06 07:38:16;;;;;;;17.03;16.33;;;34.30;1.00;;;;;;5013535;28;20427;-69
2022/06/06 07:40:53;;;;;;;18.57;17.47;;;34.40;1.10;;;;;;5013559;28;20816;-71
2022/06/06 07:43:53;;;;;;;17.37;16.43;;;34.80;1.00;;;;;;5013285;28;20553;-71
2022/06/06 07:46:32;;;;;;;16.87;16.20;;;34.90;1.00;;;;;;5013632;28;20415;-70
2022/06/06 07:49:11;;;;;;;17.40;16.70;;;34.60;1.00;;;;;;5013439;28;20414;-72
2022/06/06 07:51:56;;;;;;;16.60;16.00;;;33.80;1.00;;;;;;5013212;28;20435;-70
2022/06/06 07:54:26;;;;;;;16.87;16.13;;;34.40;1.00;;;;;;5013504;28;20465;-74
2022/06/06 07:57:25;;;;;;;18.03;17.20;;;35.10;1.00;;;;;;5011957;28;20430;-70
2022/06/06 08:00:02;;;;;;;17.43;16.63;;;35.50;1.00;;;;;;5013227;28;20477;-69
2022/06/06 08:02:35;;;;;;;16.63;15.93;;;35.50;1.00;;;;;;5045226;22;20896;-71
2022/06/06 08:05:28;;;;;;;17.70;17.00;;;34.60;1.00;;;;;;5013216;28;20490;-71
2022/06/06 08:08:07;;;;;;;18.13;17.33;;;34.30;1.00;;;;;;5013091;28;20401;-72
2022/06/06 08:10:43;;;;;;;17.17;16.47;;;33.90;1.00;;;;;;5006873;28;20801;-71
2022/06/06 08:13:27;;;;;;;15.90;15.20;;;33.00;1.00;;;;;;5008697;28;20411;-70
2022/06/06 08:16:01;;;;;;;16.67;15.97;;;32.10;1.00;;;;;;5007376;28;20500;-70
2022/06/06 08:18:47;;;;;;;15.83;15.13;;;31.60;1.80;;;;;;5006157;28;20462;-70
2022/06/06 08:21:19;;;;;;;16.60;15.93;;;31.80;1.00;;;;;;5002913;28;20605;-71
2022/06/06 08:23:46;;;;;;;16.80;15.90;;;31.70;1.50;;;;;;5007119;28;20418;-70
2022/06/06 08:26:11;;;;;;;17.20;16.50;;;31.40;1.80;;;;;;5008415;28;20415;-70
2022/06/06 08:28:40;;;;;;;16.60;15.80;;;31.20;1.70;;;;;;5008953;28;20788;-72
2022/06/06 08:31:07;;;;;;;16.40;15.70;;;31.20;1.80;;;;;;5009063;28;20195;-70
2022/06/06 08:33:33;;;;;;;15.00;14.40;;;30.50;1.50;;;;;;5008369;28;20437;-70
2022/06/06 08:36:36;;;;;;;15.97;15.27;;;30.80;2.70;;;;;;5008404;28;20919;-69
2022/06/06 08:39:35;;;;;;;15.70;15.10;;;30.70;2.10;;;;;;5008416;28;20211;-71
2022/06/06 08:42:24;;;;;;;15.80;15.10;;;30.70;1.90;;;;;;5008742;28;20497;-70
2022/06/06 08:45:18;;;;;;;15.87;15.27;;;30.80;1.70;;;;;;5008122;28;20461;-71
2022/06/06 08:48:02;;;;;;;16.10;15.20;;;30.90;2.30;;;;;;5009220;28;20489;-72
2022/06/06 08:50:46;;;;;;;16.00;15.30;;;31.30;2.10;;;;;;4992718;28;20450;-71
2022/06/06 08:53:43;;;;;;;16.37;15.77;;;31.40;1.30;;;;;;5010401;28;20426;-70
2022/06/06 08:56:31;;;;;;;16.30;15.60;;;31.60;1.00;;;;;;5009169;28;20427;-70
2022/06/06 08:59:35;;;;;;;16.83;16.13;;;31.10;1.40;;;;;;5008093;28;20469;-71
2022/06/06 09:02:26;;;;;;;16.27;15.57;;;30.40;2.40;;;;;;5008037;28;20516;-71
2022/06/06 09:05:22;;;;;;;16.53;15.80;;;30.30;3.40;;;;;;5007845;28;20438;-70
2022/06/06 09:08:10;;;;;;;15.80;15.10;;;30.20;3.20;;;;;;5008231;28;20955;-71
2022/06/06 09:10:48;;;;;;;16.03;15.43;;;29.90;3.00;;;;;;5007554;28;20466;-70
2022/06/06 09:13:43;;;;;;;16.80;15.87;;;29.70;3.30;;;;;;5007802;28;20429;-70
2022/06/06 09:16:40;;;;;;;16.37;15.43;;;29.50;3.30;;;;;;5008204;28;20817;-71
2022/06/06 09:19:34;;;;;;;16.50;15.77;;;29.30;3.90;;;;;;5008201;28;20536;-71
2022/06/06 09:22:36;;;;;;;15.63;14.80;;;29.30;2.80;;;;;;5007281;28;20433;-70
2022/06/06 09:25:16;;;;;;;15.70;15.00;;;28.80;3.70;;;;;;4996531;28;20437;-71
2022/06/06 09:27:59;;;;;;;15.80;15.10;;;28.40;3.50;;;;;;5010062;28;20423;-70
2022/06/06 09:31:01;;;;;;;15.37;14.77;;;28.70;3.60;;;;;;5011432;28;20418;-71
2022/06/06 09:34:04;;;;;;;15.27;14.67;;;28.80;3.70;;;;;;5013177;28;20422;-74
2022/06/06 09:37:28;;;;;;;15.00;14.30;;;28.80;3.00;;;;;;5015696;28;20827;-71
2022/06/06 09:40:15;;;;;;;15.40;14.80;;;28.70;2.60;;;;;;4955579;28;20557;-71
2022/06/06 09:43:05;;;;;;;15.40;14.80;;;28.70;3.60;;;;;;4967495;28;20495;-70
2022/06/06 09:45:52;;;;;;;16.63;15.77;;;28.10;2.60;;;;;;5012192;28;20433;-70
2022/06/06 09:48:38;;;;;;;16.00;15.40;;;28.00;2.70;;;;;;5015660;28;20410;-70
2022/06/06 09:51:39;;;;;;;15.43;14.83;;;27.30;2.90;;;;;;5014486;28;20813;-71
2022/06/06 10:01:19;;;;;;;14.70;14.10;;;26.70;4.30;;;;;;5014332;28;20816;-70
2022/06/06 10:04:00;;;;;;;14.83;14.23;;;26.70;5.10;;;;;;5015225;28;20410;-71
2022/06/06 10:06:47;;;;;;;14.97;14.37;;;26.80;5.70;;;;;;5015255;28;20419;-70
2022/06/06 10:09:40;;;;;;;15.33;14.73;;;26.50;4.20;;;;;;5015243;28;20411;-70
2022/06/06 10:12:31;;;;;;;14.60;14.00;;;26.40;5.20;;;;;;5013219;28;20861;-67
2022/06/06 10:15:34;;;;;;;14.70;14.17;;;26.50;5.90;;;;;;5013750;28;20431;-71
2022/06/06 10:18:30;;;;;;;14.30;13.80;;;26.60;5.40;;;;;;5015131;28;20824;-68
2022/06/06 10:21:15;;;;;;;14.23;13.53;;;26.80;6.30;;;;;;5014805;28;20534;-70
2022/06/06 10:23:57;;;;;;;15.20;14.50;;;27.00;6.20;;;;;;5014865;28;20521;-69
2022/06/06 10:26:51;;;;;;;15.33;14.63;;;27.20;5.00;;;;;;5010950;28;21624;-69
2022/06/06 10:32:31;;;;;;;14.80;14.20;;;27.40;5.00;;;;;;5014405;28;20477;-70
2022/06/06 10:35:24;;;;;;;15.10;14.50;;;27.70;4.50;;;;;;5014723;28;20892;-70
2022/06/06 10:38:17;;;;;;;15.50;14.80;;;27.80;3.50;;;;;;4982690;28;20450;-69
2022/06/06 10:40:58;;;;;;;15.63;15.03;;;27.80;4.20;;;;;;5013233;28;20473;-69
2022/06/06 10:44:02;;;;;;;15.60;15.00;;;27.70;4.40;;;;;;5014728;28;20901;-69
2022/06/06 10:47:03;;;;;;;15.67;15.07;;;27.70;4.00;;;;;;4991299;28;20473;-68
2022/06/06 10:49:41;;;;;;;16.30;15.40;;;27.50;3.00;;;;;;5015689;28;20410;-67
2022/06/06 10:52:53;;;;;;;15.63;15.00;;;27.50;3.00;;;;;;5014194;28;20454;-67
2022/06/06 10:55:46;;;;;;;16.23;15.63;;;27.20;2.80;;;;;;5013435;28;20886;-68
2022/06/06 10:58:49;;;;;;;15.60;15.00;;;27.10;2.80;;;;;;5014364;28;20419;-69
2022/06/06 11:01:52;;;;;;;16.03;15.23;;;26.90;2.90;;;;;;5013917;28;20450;-70
2022/06/06 11:04:36;;;;;;;15.47;14.87;;;26.90;2.70;;;;;;5014650;28;20418;-70
2022/06/06 11:07:48;;;;;;;15.27;14.63;;;26.90;3.30;;;;;;5013219;28;21020;-70
2022/06/06 11:10:28;;;;;;;15.80;15.20;;;27.10;3.90;;;;;;4987242;28;20426;-71
2022/06/06 11:13:12;;;;;;;16.70;16.00;;;27.20;3.50;;;;;;5012710;28;20943;-72
2022/06/06 11:15:44;;;;;;;16.03;15.33;;;27.30;3.60;;;;;;5013051;28;20475;-72
2022/06/06 11:18:28;;;;;;;16.23;15.47;;;27.40;2.90;;;;;;5014133;28;20550;-73
2022/06/06 11:21:06;;;;;;;15.87;15.07;;;27.20;2.80;;;;;;5013543;28;20454;-73
2022/06/06 11:23:47;;;;;;;17.10;16.30;;;27.40;4.20;;;;;;5013929;28;20398;-74
2022/06/06 11:26:43;;;;;;;16.00;15.40;;;27.90;3.80;;;;;;5012482;28;20454;-73
2022/06/06 11:29:35;;;;;;;17.53;16.63;;;28.10;3.30;;;;;;5013678;28;20426;-73
2022/06/06 11:32:37;;;;;;;17.67;16.57;;;28.40;3.50;;;;;;5013475;28;20484;-73
2022/06/06 11:35:41;;;;;;;19.90;18.80;;;28.30;3.40;;;;;;5013404;28;20418;-73
2022/06/06 11:38:44;;;;;;;18.03;17.03;;;28.00;3.30;;;;;;5013636;28;20434;-73
2022/06/06 11:41:09;;;;;;;16.27;15.50;;;28.10;3.30;;;;;;5013404;28;20447;-73
2022/06/06 11:43:58;;;;;;;17.30;16.50;;;28.00;3.20;;;;;;5012247;28;20434;-73
2022/06/06 11:46:54;;;;;;;18.50;17.50;;;27.80;3.50;;;;;;5013706;28;20206;-73
2022/06/06 11:49:45;;;;;;;16.00;15.30;;;27.70;4.00;;;;;;5011909;28;20694;-73
2022/06/06 11:52:42;;;;;;;15.20;14.70;;;27.60;4.50;;;;;;5011947;28;20443;-72
2022/06/06 11:55:32;;;;;;;16.60;15.70;;;27.50;4.10;;;;;;5012054;28;20422;-72
2022/06/06 11:58:04;;;;;;;14.97;14.37;;;27.10;3.90;;;;;;4999462;28;20442;-70
2022/06/06 12:01:12;;;;;;;15.17;14.47;;;26.80;4.20;;;;;;4993576;28;20463;-71
2022/06/06 12:03:56;;;;;;;15.77;15.10;;;26.80;4.70;;;;;;4997723;28;20481;-72
2022/06/06 12:06:31;;;;;;;15.60;15.00;;;26.90;3.80;;;;;;5012948;28;20995;-71
2022/06/06 12:09:35;;;;;;;14.73;14.13;;;26.80;2.70;;;;;;5013672;28;20420;-72
2022/06/06 12:12:18;;;;;;;14.73;14.23;;;26.60;3.00;;;;;;5012681;28;20431;-71
2022/06/06 12:15:05;;;;;;;15.20;14.67;;;26.50;3.70;;;;;;5011922;28;20415;-71
2022/06/06 12:18:01;;;;;;;14.50;14.00;;;26.80;3.50;;;;;;4993285;28;20936;-71
2022/06/06 12:21:16;;;;;;;14.83;14.23;;;26.80;3.10;;;;;;4993174;28;20470;-71
2022/06/06 12:23:59;;;;;;;14.87;14.27;;;27.00;2.90;;;;;;4933030;29;20434;-71
2022/06/06 12:26:51;;;;;;;14.97;14.37;;;27.00;3.40;;;;;;4932725;29;20414;-72
2022/06/06 12:29:28;;;;;;;14.30;13.80;;;26.90;2.70;;;;;;4979289;28;20428;-72
2022/06/06 12:32:12;;;;;;;14.23;13.63;;;26.70;2.60;;;;;;5008225;28;21148;-70
2022/06/06 12:35:01;;;;;;;15.80;15.10;;;26.60;2.90;;;;;;5008508;28;20434;-70
2022/06/06 12:38:15;;;;;;;14.17;13.67;;;26.60;2.80;;;;;;5008592;28;20932;-71
2022/06/06 12:40:59;;;;;;;15.93;15.10;;;26.60;2.90;;;;;;4989920;28;20466;-69
2022/06/06 12:43:43;;;;;;;18.30;17.20;;;26.90;2.80;;;;;;5008742;28;20469;-70
2022/06/06 12:46:38;;;;;;;15.80;15.07;;;26.90;3.30;;;;;;5008689;28;20927;-70
2022/06/06 12:49:33;;;;;;;15.90;15.30;;;27.00;2.70;;;;;;5007215;28;20637;-70
2022/06/06 12:52:17;;;;;;;14.93;14.33;;;27.20;3.40;;;;;;5002623;28;20432;-72
2022/06/06 12:57:50;;;;;;;13.77;13.27;;;27.50;3.00;;;;;;4992476;28;20492;-73
2022/06/06 13:01:37;;;;;;;14.97;14.37;;;27.50;1.70;;;;;;5005923;28;20462;-73
2022/06/06 13:03:29;;;;;;;14.97;14.37;;;27.20;2.90;;;;;;5000686;28;21020;-74
2022/06/06 13:06:03;;;;;;;14.53;14.00;;;27.30;2.90;;;;;;5008786;28;20415;-75
2022/06/06 13:08:55;;;;;;;15.03;14.37;;;27.50;3.00;;;;;;5008244;28;20442;-74
2022/06/06 13:11:48;;;;;;;14.97;14.37;;;27.70;3.10;;;;;;5007335;28;20878;-74
2022/06/06 13:14:40;;;;;;;15.83;15.03;;;28.00;2.70;;;;;;5008586;28;20418;-73
2022/06/06 13:17:29;;;;;;;15.13;14.63;;;28.20;2.20;;;;;;5007788;28;20842;-72
2022/06/06 13:20:16;;;;;;;15.63;14.93;;;28.40;1.40;;;;;;5007419;28;20462;-72
2022/06/06 13:23:00;;;;;;;15.10;14.60;;;28.60;1.50;;;;;;4987909;28;20438;-73
2022/06/06 13:25:32;;;;;;;14.77;14.17;;;28.80;1.00;;;;;;4987013;28;20486;-71
2022/06/06 13:28:19;;;;;;;14.50;13.90;;;29.00;1.00;;;;;;4986789;28;20486;-71
2022/06/06 13:30:48;;;;;;;14.83;14.03;;;28.80;1.00;;;;;;4988711;28;20435;-71
2022/06/06 13:33:24;;;;;;;14.90;14.33;;;28.80;1.00;;;;;;5005658;28;20566;-72
2022/06/06 13:36:04;;;;;;;15.23;14.63;;;28.70;1.00;;;;;;5007852;28;20502;-71
2022/06/06 13:38:59;;;;;;;16.13;15.43;;;28.10;1.00;;;;;;5007318;28;20529;-71
2022/06/06 13:41:37;;;;;;;14.53;14.00;;;27.70;1.00;;;;;;5006564;28;20861;-71
2022/06/06 13:44:34;;;;;;;15.40;14.80;;;27.80;1.00;;;;;;5007954;28;20446;-71
2022/06/06 13:47:28;;;;;;;14.57;14.07;;;27.80;1.00;;;;;;5008424;28;20433;-72
2022/06/06 13:50:08;;;;;;;14.93;14.43;;;27.80;1.10;;;;;;5007688;28;20457;-71
2022/06/06 13:52:52;;;;;;;15.10;14.60;;;28.00;1.00;;;;;;5006151;28;20453;-71
2022/06/06 13:55:39;;;;;;;15.27;14.67;;;28.00;1.00;;;;;;5007762;28;20419;-72
2022/06/06 13:58:13;;;;;;;14.60;14.00;;;28.00;1.00;;;;;;5008265;28;20932;-72
2022/06/06 14:01:05;;;;;;;15.57;14.87;;;27.80;1.00;;;;;;5007282;28;20879;-71
2022/06/06 14:03:54;;;;;;;14.93;14.37;;;27.90;1.00;;;;;;5006735;28;20959;-71
2022/06/06 14:08:57;;;;;;;14.97;14.37;;;27.60;1.00;;;;;;4987939;28;20479;-70
2022/06/06 14:11:45;;;;;;;15.90;15.10;;;27.60;1.00;;;;;;4987514;28;20426;-70
2022/06/06 14:14:15;;;;;;;15.03;14.43;;;27.60;1.00;;;;;;4972946;28;20436;-70
2022/06/06 14:16:44;;;;;;;15.37;14.87;;;27.70;1.00;;;;;;4978506;28;20484;-69
2022/06/06 14:19:22;;;;;;;15.70;15.10;;;27.80;1.00;;;;;;4986619;28;20459;-70
2022/06/06 14:21:55;;;;;;;14.80;14.20;;;27.60;1.00;;;;;;4985526;28;20439;-69
2022/06/06 14:24:24;;;;;;;15.70;15.10;;;27.70;1.70;;;;;;4971902;28;20528;-68
2022/06/06 14:26:58;;;;;;;15.23;14.63;;;27.70;1.00;;;;;;4985130;28;20454;-69
2022/06/06 14:29:29;;;;;;;14.97;14.37;;;27.90;1.00;;;;;;4991551;28;20435;-69